Startpagina
METAR-TAF:

METAR-TAF

Vliegvelden :

Nanking, China

Internationale luchthaven Nanjing Lukou

breedte: 32-00N, lengte: 118-48E, hoogte: 12 m

Actueel weer

Dit bericht is 16 minuten geleden gemaakt, om 20:00 UTC
Wind 6 kt uit het oostnoordoosten
Temperatuur 8°C
Vochtigheid 81%
Druk 1026 hPa
Zicht: 5000 m
Geheel bewolkt op 3000 ft
nevel

METAR: ZSNJ 242000Z 06003MPS 5000 BR OVC030 08/05 Q1026 NOSIG

Tijdstip: 04:16 (20:16 UTC)

Verwachting

Dit bericht is 5 uur en het 6 minuten geleden gemaakt, om 15:10 UTC
Verwachting geldig van 24 om 18 UTC tot 25 om 18 UTC
Wind 8 kt uit het oostnoordoosten
Zicht: 3000 m
nevel

TAF: ZSNJ 241510Z 2418/2518 06004MPS 3000 BR NSC TX11/2506Z TN05/2422Z

Waarnemingen en weersverwachtingen van meer dan 4000 vliegvelden (METAR en TAF).

De beschikbare stations zijn de gele en rode punten op de kaart.

Ga met uw muis naar het station om de naam te zien.

Klik dan om waarnemingen en weersverwachtingen te zien.

kaart wijzigen: klik op de groene knoppen met een zwart kruis om in te zoomen, op de groene knop met een streepje om uit te zoomen of op de groene pijlen voor aangrenzende kaarten.


METAR-TAF: